Time;durP1;ratioP1;P1;durP2;ratioP2;P2;SDS_P1;SDS_P2;PMS_P1;PMS_P2;Temp;Humidity;BMP_temperature;BMP_pressure;BME280_temperature;BME280_humidity;BME280_pressure;Samples;Min_cycle;Max_cycle;Signal;HPM_P1;HPM_P2
2023/10/09 00:04:51;;;;;;;1.88;1.30;;;;;;;11.93;100.00;98936.44;15290820;19;20015;-47
2023/10/09 00:10:19;;;;;;;1.42;1.33;;;;;;;11.88;100.00;98923.41;15291471;19;20011;-48
2023/10/09 00:15:52;;;;;;;1.58;1.30;;;;;;;11.85;100.00;98920.16;15290135;19;20010;-47
2023/10/09 00:21:20;;;;;;;2.95;1.30;;;;;;;11.90;100.00;98907.06;15287619;19;20018;-48
2023/10/09 00:26:48;;;;;;;1.85;1.50;;;;;;;11.86;100.00;98890.34;15286099;19;20022;-47
2023/10/09 00:32:22;;;;;;;1.52;1.40;;;;;;;11.86;100.00;98886.75;15285613;19;20086;-47
2023/10/09 00:37:47;;;;;;;1.58;1.30;;;;;;;11.88;100.00;98888.28;15287056;19;20772;-47
2023/10/09 00:43:13;;;;;;;3.60;1.40;;;;;;;11.84;100.00;98872.56;15287961;19;20022;-48
2023/10/09 00:48:40;;;;;;;1.73;1.40;;;;;;;11.83;100.00;98870.88;15284676;19;20472;-46
2023/10/09 00:54:19;;;;;;;2.38;1.50;;;;;;;11.83;100.00;98860.06;15282970;19;20464;-48
2023/10/09 00:59:48;;;;;;;2.50;1.40;;;;;;;11.84;100.00;98845.56;15283189;19;20479;-48
2023/10/09 01:05:21;;;;;;;2.17;1.50;;;;;;;11.90;100.00;98860.28;15286690;19;20364;-47
2023/10/09 01:10:51;;;;;;;1.92;1.50;;;;;;;11.92;100.00;98856.44;15288352;19;20090;-47
2023/10/09 01:16:17;;;;;;;2.85;1.50;;;;;;;11.96;100.00;98847.00;15284479;19;20057;-47
2023/10/09 01:21:45;;;;;;;1.88;1.50;;;;;;;11.97;100.00;98840.59;15281641;19;20037;-53
2023/10/09 01:27:14;;;;;;;3.60;1.42;;;;;;;11.96;100.00;98833.50;15277965;19;20619;-53
2023/10/09 01:32:40;;;;;;;2.45;1.60;;;;;;;11.94;100.00;98834.69;15281815;19;20021;-52
2023/10/09 01:38:10;;;;;;;2.33;1.80;;;;;;;11.87;100.00;98810.16;15280124;19;20018;-51
2023/10/09 01:43:38;;;;;;;3.03;2.20;;;;;;;11.89;100.00;98810.88;15288035;19;20071;-51
2023/10/09 01:49:09;;;;;;;4.07;2.25;;;;;;;11.93;100.00;98789.78;15276622;19;20024;-51
2023/10/09 01:54:41;;;;;;;3.28;2.08;;;;;;;11.93;100.00;98782.53;15281037;19;20388;-54
2023/10/09 02:00:22;;;;;;;3.72;2.00;;;;;;;11.92;100.00;98805.16;15277122;19;20018;-52
2023/10/09 02:05:47;;;;;;;4.28;2.20;;;;;;;11.95;100.00;98804.81;15273979;19;20035;-53
2023/10/09 02:11:14;;;;;;;4.53;2.20;;;;;;;12.01;100.00;98798.81;15281218;19;20003;-53
2023/10/09 02:16:44;;;;;;;5.28;2.47;;;;;;;12.06;100.00;98790.22;15279704;19;20022;-51
2023/10/09 02:22:14;;;;;;;4.32;2.60;;;;;;;12.11;100.00;98789.72;15276142;19;20097;-55
2023/10/09 02:27:53;;;;;;;4.03;2.60;;;;;;;12.13;100.00;98768.81;15279166;19;20873;-51
2023/10/09 02:33:27;;;;;;;6.25;2.88;;;;;;;12.23;100.00;98747.06;15274911;19;20085;-55
2023/10/09 02:38:56;;;;;;;5.07;2.72;;;;;;;12.27;100.00;98733.06;15271565;19;20493;-51
2023/10/09 02:44:24;;;;;;;6.90;2.85;;;;;;;12.31;100.00;98734.41;15281433;19;20006;-55
2023/10/09 02:49:52;;;;;;;5.43;3.10;;;;;;;12.37;100.00;98737.47;15270641;19;20065;-53
2023/10/09 02:55:25;;;;;;;6.95;3.17;;;;;;;12.39;100.00;98732.78;15271951;19;20022;-48
2023/10/09 03:00:51;;;;;;;5.97;3.10;;;;;;;12.32;100.00;98735.28;15273326;19;20017;-53
2023/10/09 03:06:24;;;;;;;6.03;3.33;;;;;;;12.29;100.00;98731.03;15268369;19;20022;-52
2023/10/09 03:11:53;;;;;;;6.57;3.60;;;;;;;12.32;100.00;98740.69;15264842;19;20094;-51
2023/10/09 03:17:19;;;;;;;6.38;3.20;;;;;;;12.31;100.00;98720.91;15268760;19;20044;-51
2023/10/09 03:22:48;;;;;;;6.78;3.17;;;;;;;12.35;100.00;98717.88;15279385;19;20029;-52
2023/10/09 03:28:15;;;;;;;7.65;3.42;;;;;;;12.31;100.00;98720.91;15289301;19;20320;-52
2023/10/09 03:33:39;;;;;;;5.53;3.25;;;;;;;12.31;100.00;98734.41;15296504;19;20024;-52
2023/10/09 03:39:18;;;;;;;6.75;3.30;;;;;;;12.29;100.00;98735.59;15282725;19;20742;-53
2023/10/09 03:44:49;;;;;;;7.13;3.72;;;;;;;12.30;100.00;98730.03;15288396;19;20018;-53
2023/10/09 03:50:26;;;;;;;5.75;3.20;;;;;;;12.31;100.00;98729.00;15292653;19;20029;-51
2023/10/09 03:55:53;;;;;;;5.82;3.10;;;;;;;12.33;100.00;98732.41;15285897;19;20034;-53
2023/10/09 04:01:23;;;;;;;5.85;2.97;;;;;;;12.33;100.00;98727.00;15288357;19;20010;-53
2023/10/09 04:06:47;;;;;;;4.88;3.03;;;;;;;12.32;100.00;98725.31;15287457;19;20471;-51
2023/10/09 04:12:25;;;;;;;4.28;2.70;;;;;;;12.26;100.00;98692.69;15284545;19;20014;-53
2023/10/09 04:17:51;;;;;;;4.28;2.75;;;;;;;12.18;100.00;98685.41;15278599;19;20472;-54
2023/10/09 04:23:33;;;;;;;4.85;2.90;;;;;;;12.15;100.00;98678.50;15285683;19;20010;-51
2023/10/09 04:29:02;;;;;;;4.30;2.67;;;;;;;12.15;100.00;98653.38;15284228;19;20015;-55
2023/10/09 04:34:34;;;;;;;5.10;3.20;;;;;;;12.16;100.00;98655.88;15287976;19;20077;-52
2023/10/09 04:40:11;;;;;;;4.80;3.00;;;;;;;12.20;100.00;98648.28;15288339;19;20359;-56
2023/10/09 04:51:36;;;;;;;6.30;3.50;;;;;;;12.22;100.00;98654.38;15289454;19;20030;-51
2023/10/09 04:57:01;;;;;;;5.70;3.22;;;;;;;12.25;100.00;98651.34;15285388;19;20040;-53
2023/10/09 05:02:36;;;;;;;5.93;3.47;;;;;;;12.28;100.00;98648.31;15285260;19;20706;-52
2023/10/09 05:08:18;;;;;;;5.85;3.13;;;;;;;12.31;100.00;98658.78;15285294;19;20074;-51
2023/10/09 05:14:11;;;;;;;5.60;3.25;;;;;;;12.33;100.00;98662.16;15281925;19;20018;-53
2023/10/09 05:25:39;;;;;;;6.60;3.28;;;;;;;12.42;100.00;98637.84;15285660;19;20050;-50
2023/10/09 05:31:09;;;;;;;4.07;3.10;;;;;;;12.43;100.00;98643.09;15289024;19;20490;-51
2023/10/09 05:36:37;;;;;;;5.53;3.55;;;;;;;12.45;100.00;98649.19;15285996;19;20014;-51
2023/10/09 05:42:09;;;;;;;6.40;3.33;;;;;;;12.49;100.00;98638.88;15284927;19;20430;-51
2023/10/09 05:47:34;;;;;;;6.25;3.50;;;;;;;12.50;100.00;98643.28;15273382;19;20022;-52
2023/10/09 05:53:34;;;;;;;7.32;3.97;;;;;;;12.55;100.00;98651.69;15276119;19;20365;-51
2023/10/09 06:04:49;;;;;;;8.07;3.92;;;;;;;12.59;100.00;98668.41;15284731;19;20031;-53
2023/10/09 06:10:37;;;;;;;5.10;3.65;;;;;;;12.67;100.00;98673.00;15283099;19;20031;-52
2023/10/09 06:22:19;;;;;;;8.07;4.07;;;;;;;12.79;100.00;98694.13;15274216;19;20014;-56
2023/10/09 06:27:57;;;;;;;5.85;3.70;;;;;;;12.86;100.00;98705.13;15276985;19;20011;-50
2023/10/09 06:33:29;;;;;;;5.47;3.80;;;;;;;12.95;100.00;98708.63;15282158;19;20026;-49
2023/10/09 06:39:50;;;;;;;6.85;3.60;;;;;;;13.07;100.00;98711.88;15278376;19;20017;-53
2023/10/09 06:44:55;;;;;;;7.60;3.65;;;;;;;13.29;100.00;98704.88;15280159;19;20030;-51
2023/10/09 06:50:55;;;;;;;7.60;3.70;;;;;;;13.44;100.00;98699.66;15279393;19;20416;-56
2023/10/09 06:56:23;;;;;;;6.97;3.40;;;;;;;13.53;100.00;98698.63;15271800;19;20030;-57
2023/10/09 07:02:25;;;;;;;5.90;3.55;;;;;;;13.63;100.00;98711.09;15281713;19;20037;-55
2023/10/09 07:07:35;;;;;;;5.53;3.00;;;;;;;13.89;100.00;98718.13;15280325;19;20082;-57
2023/10/09 07:12:59;;;;;;;5.13;2.95;;;;;;;14.13;100.00;98726.16;15286051;19;20053;-53
2023/10/09 07:18:49;;;;;;;5.82;3.10;;;;;;;14.45;100.00;98712.59;15280599;19;20471;-54
2023/10/09 07:24:17;;;;;;;4.93;2.55;;;;;;;14.60;100.00;98709.94;15275240;19;20033;-57
2023/10/09 07:29:50;;;;;;;6.13;2.80;;;;;;;14.72;100.00;98675.13;15276128;19;20006;-52
2023/10/09 07:35:46;;;;;;;4.35;2.70;;;;;;;14.76;100.00;98681.91;15283003;19;20098;-54
2023/10/09 07:41:33;;;;;;;4.22;2.70;;;;;;;14.85;100.00;98667.22;15279774;19;20017;-54
2023/10/09 07:47:13;;;;;;;5.95;2.72;;;;;;;14.93;100.00;98666.31;15280053;19;20021;-55
2023/10/09 07:52:44;;;;;;;3.63;2.38;;;;;;;15.07;100.00;98665.53;15281053;19;20081;-51
2023/10/09 07:58:11;;;;;;;4.40;2.63;;;;;;;15.17;100.00;98675.25;15273911;19;20074;-50
2023/10/09 08:03:35;;;;;;;5.15;2.70;;;;;;;15.24;100.00;98668.06;15273401;19;20014;-52
2023/10/09 08:09:38;;;;;;;5.05;2.65;;;;;;;15.30;100.00;98664.59;15288713;19;20086;-54
2023/10/09 08:21:19;;;;;;;3.53;2.55;;;;;;;15.29;100.00;98654.78;15294786;19;20266;-55
2023/10/09 08:27:27;;;;;;;3.28;2.30;;;;;;;15.30;100.00;98670.03;15288348;19;20011;-57
2023/10/09 08:32:42;;;;;;;5.82;2.70;;;;;;;15.22;100.00;98646.53;15289961;19;20082;-56
2023/10/09 08:38:11;;;;;;;4.22;2.53;;;;;;;15.09;100.00;98649.03;15290933;19;20492;-56
2023/10/09 08:43:43;;;;;;;4.55;2.70;;;;;;;15.02;100.00;98656.25;15284667;19;20007;-54
2023/10/09 08:49:09;;;;;;;5.03;2.80;;;;;;;14.93;100.00;98669.03;15289391;19;20018;-56
2023/10/09 08:54:41;;;;;;;4.28;2.72;;;;;;;14.84;100.00;98681.81;15268013;19;20078;-56
2023/10/09 09:00:12;;;;;;;4.50;2.97;;;;;;;14.84;100.00;98689.97;15284818;19;20018;-55
2023/10/09 09:05:36;;;;;;;5.00;2.58;;;;;;;14.82;100.00;98715.59;15285728;19;20033;-58
2023/10/09 09:11:11;;;;;;;6.93;2.95;;;;;;;14.70;100.00;98737.69;15292018;19;20011;-58
2023/10/09 09:16:43;;;;;;;4.68;2.92;;;;;;;14.61;100.00;98763.16;15286174;19;20018;-56
2023/10/09 09:22:15;;;;;;;4.10;2.75;;;;;;;14.48;100.00;98780.84;15287544;19;20021;-57
2023/10/09 09:28:09;;;;;;;5.28;3.38;;;;;;;14.43;100.00;98782.41;15286536;19;20021;-57
2023/10/09 09:33:43;;;;;;;7.15;3.45;;;;;;;14.41;100.00;98790.69;15285690;19;20097;-60
2023/10/09 09:39:19;;;;;;;5.40;3.70;;;;;;;14.44;100.00;98806.63;15277880;19;20025;-56
2023/10/09 09:44:48;;;;;;;3.80;3.00;;;;;;;14.44;100.00;98805.78;15284317;19;20086;-58
2023/10/09 09:50:24;;;;;;;6.10;3.88;;;;;;;14.44;100.00;98812.03;15291152;19;20532;-85
2023/10/09 09:55:55;;;;;;;8.15;3.70;;;;;;;14.43;100.00;98804.94;15299938;19;20063;-85
2023/10/09 10:01:25;;;;;;;5.80;3.50;;;;;;;14.44;100.00;98812.03;15298579;19;20010;-84
2023/10/09 10:06:54;;;;;;;4.85;3.20;;;;;;;14.49;100.00;98808.78;15295337;19;20010;-85
2023/10/09 10:12:20;;;;;;;4.78;3.50;;;;;;;14.51;100.00;98805.94;15299789;19;20010;-84
2023/10/09 10:18:18;;;;;;;7.50;3.85;;;;;;;14.56;100.00;98814.34;15326790;19;20022;-82
2023/10/09 10:23:48;;;;;;;6.47;3.85;;;;;;;14.57;100.00;98821.47;15329610;19;20526;-84
2023/10/09 10:29:32;;;;;;;5.97;4.10;;;;;;;14.59;100.00;98808.59;15320989;19;20038;-85
2023/10/09 10:35:06;;;;;;;6.53;4.53;;;;;;;14.64;100.00;98822.47;15321546;19;20006;-82
2023/10/09 10:46:24;;;;;;;7.50;4.75;;;;;;;14.70;100.00;98815.53;15323350;19;20086;-82
2023/10/09 10:52:14;;;;;;;7.10;4.97;;;;;;;14.64;100.00;98838.75;15283871;19;20018;-55
2023/10/09 10:57:53;;;;;;;8.57;5.30;;;;;;;14.63;100.00;98864.16;15255355;19;20025;-52
2023/10/09 11:03:29;;;;;;;7.30;5.20;;;;;;;14.67;100.00;98870.94;15280757;19;20239;-53
2023/10/09 11:09:08;;;;;;;7.25;5.18;;;;;;;14.74;100.00;98871.94;15272083;19;20026;-56
2023/10/09 11:14:44;;;;;;;11.45;5.90;;;;;;;14.77;100.00;98870.72;15275109;19;20024;-51
2023/10/09 11:26:07;;;;;;;7.63;5.80;;;;;;;14.89;100.00;98861.16;15278879;19;20556;-53
2023/10/09 11:31:33;;;;;;;6.20;4.40;;;;;;;14.99;100.00;98855.53;15281239;19;20709;-56
2023/10/09 11:37:01;;;;;;;8.02;4.22;;;;;;;14.99;100.00;98850.09;15278338;19;20478;-54
2023/10/09 11:42:38;;;;;;;5.55;3.88;;;;;;;15.03;100.00;98835.13;15278542;19;20520;-56
2023/10/09 11:48:03;;;;;;;5.95;4.03;;;;;;;15.01;100.00;98817.34;15285171;19;20010;-53
2023/10/09 11:53:38;;;;;;;5.65;3.58;;;;;;;15.17;100.00;98819.94;15288940;19;20097;-55
2023/10/09 11:59:05;;;;;;;4.55;3.08;;;;;;;15.23;100.00;98812.94;15289411;19;20414;-52
2023/10/09 12:04:30;;;;;;;5.25;2.80;;;;;;;15.18;100.00;98807.22;15290132;19;20014;-52
2023/10/09 12:09:56;;;;;;;5.60;3.00;;;;;;;15.19;100.00;98814.34;15285037;19;20018;-53
2023/10/09 12:15:22;;;;;;;4.22;2.75;;;;;;;15.21;100.00;98815.84;15285860;19;20028;-53
2023/10/09 12:20:50;;;;;;;4.25;3.05;;;;;;;15.19;100.00;98807.03;15275757;19;20010;-51
2023/10/09 12:26:18;;;;;;;4.43;2.50;;;;;;;15.24;100.00;98806.47;15286092;19;20030;-53
2023/10/09 12:31:45;;;;;;;4.80;2.58;;;;;;;15.35;100.00;98803.31;15282185;19;20011;-53
2023/10/09 12:37:10;;;;;;;5.85;3.00;;;;;;;15.39;100.00;98791.09;15293084;19;20431;-52
2023/10/09 12:42:37;;;;;;;5.60;2.72;;;;;;;15.44;100.00;98785.09;15297571;19;20006;-54
2023/10/09 12:48:03;;;;;;;4.03;2.67;;;;;;;15.47;100.00;98778.44;15283605;19;20366;-54
2023/10/09 12:53:29;;;;;;;5.78;2.80;;;;;;;15.51;100.00;98782.50;15287840;19;20495;-51
2023/10/09 12:58:57;;;;;;;5.10;2.75;;;;;;;15.57;100.00;98779.06;15296606;19;20014;-55
2023/10/09 13:04:31;;;;;;;5.43;3.10;;;;;;;15.61;100.00;98790.38;15295211;19;20015;-52
2023/10/09 13:15:42;;;;;;;5.47;3.58;;;;;;;15.65;100.00;98786.25;15289862;19;20032;-51
2023/10/09 13:21:07;;;;;;;5.13;3.35;;;;;;;15.61;100.00;98768.66;15275594;19;20014;-52
2023/10/09 13:26:34;;;;;;;6.03;3.58;;;;;;;15.59;100.00;98787.84;15286768;19;21342;-52
2023/10/09 13:32:02;;;;;;;6.50;3.63;;;;;;;15.58;100.00;98802.47;15288217;19;20034;-54
2023/10/09 13:37:27;;;;;;;6.47;3.33;;;;;;;15.54;100.00;98804.69;15280363;19;20006;-55
2023/10/09 13:42:52;;;;;;;5.10;2.83;;;;;;;15.50;100.00;98821.53;15279962;19;20093;-54
2023/10/09 13:48:20;;;;;;;6.55;3.20;;;;;;;15.46;100.00;98822.94;15284257;19;20014;-55
2023/10/09 13:53:48;;;;;;;6.25;2.90;;;;;;;15.38;100.00;98821.97;15266861;19;20015;-55
2023/10/09 13:59:13;;;;;;;6.47;3.20;;;;;;;15.28;100.00;98834.94;15283699;19;20014;-54
2023/10/09 14:04:41;;;;;;;4.13;2.80;;;;;;;15.22;100.00;98830.25;15278775;19;20011;-54
2023/10/09 14:10:17;;;;;;;4.40;2.90;;;;;;;15.10;100.00;98827.13;15279933;19;20014;-53
2023/10/09 14:15:43;;;;;;;8.02;3.38;;;;;;;15.10;100.00;98827.97;15283455;19;20725;-56
2023/10/09 14:21:16;;;;;;;6.25;3.60;;;;;;;15.09;100.00;98830.84;15274105;19;20028;-56
2023/10/09 14:26:41;;;;;;;6.18;3.50;;;;;;;15.04;100.00;98825.97;15268804;19;20049;-55
2023/10/09 14:32:13;;;;;;;5.80;3.28;;;;;;;15.02;100.00;98825.28;15287912;19;20010;-56
2023/10/09 14:37:45;;;;;;;4.50;3.42;;;;;;;15.00;100.00;98826.50;15281318;19;20020;-55
2023/10/09 14:43:18;;;;;;;6.00;3.22;;;;;;;14.96;100.00;98828.75;15284500;19;20010;-53
2023/10/09 14:48:45;;;;;;;8.18;3.88;;;;;;;14.92;100.00;98847.25;15277970;19;20029;-55
2023/10/09 14:54:21;;;;;;;6.07;3.38;;;;;;;14.88;100.00;98861.31;15272473;19;20018;-55
2023/10/09 14:59:46;;;;;;;4.65;3.15;;;;;;;14.84;100.00;98860.03;15262759;19;20024;-55
2023/10/09 15:05:13;;;;;;;6.28;3.28;;;;;;;14.72;100.00;98863.13;15277772;19;20026;-55
2023/10/09 15:10:48;;;;;;;7.28;3.50;;;;;;;14.63;100.00;98867.72;15272001;19;20027;-55
2023/10/09 15:16:13;;;;;;;7.43;3.55;;;;;;;14.57;100.00;98868.44;15285535;19;20923;-53
2023/10/09 15:21:43;;;;;;;6.38;3.45;;;;;;;14.49;100.00;98855.75;15295561;19;20010;-53
2023/10/09 15:27:13;;;;;;;6.50;3.78;;;;;;;14.47;100.00;98859.63;15287500;19;20085;-51
2023/10/09 15:32:38;;;;;;;5.13;3.72;;;;;;;14.48;100.00;98855.91;15286498;19;20014;-51
2023/10/09 15:38:03;;;;;;;7.32;3.80;;;;;;;14.49;100.00;98869.31;15291988;19;20037;-55
2023/10/09 15:43:33;;;;;;;10.85;4.53;;;;;;;14.56;100.00;98879.44;15293520;19;20009;-54
2023/10/09 15:48:57;;;;;;;8.00;4.80;;;;;;;14.57;100.00;98881.13;15290902;19;20015;-55
2023/10/09 15:54:28;;;;;;;8.85;4.85;;;;;;;14.60;100.00;98886.19;15287229;19;20086;-55
2023/10/09 15:59:57;;;;;;;7.65;4.55;;;;;;;14.62;100.00;98905.84;15272634;19;20018;-54
2023/10/09 16:05:25;;;;;;;7.15;4.72;;;;;;;14.64;100.00;98920.09;15278844;19;20486;-54
2023/10/09 16:10:51;;;;;;;7.55;4.88;;;;;;;14.66;100.00;98918.03;15287670;19;20764;-54
2023/10/09 16:16:17;;;;;;;9.85;4.95;;;;;;;14.67;100.00;98927.88;15290150;19;20501;-51
2023/10/09 16:21:52;;;;;;;6.18;4.30;;;;;;;14.70;100.00;98924.84;15280617;19;20078;-57
2023/10/09 16:27:23;;;;;;;6.20;3.47;;;;;;;14.73;100.00;98935.34;15284274;19;20016;-56
2023/10/09 16:32:50;;;;;;;6.18;4.10;;;;;;;14.79;100.00;98917.50;15276261;19;20018;-59
2023/10/09 16:38:16;;;;;;;6.53;3.90;;;;;;;14.82;100.00;98940.72;15281636;19;20277;-57
2023/10/09 16:43:42;;;;;;;6.95;4.18;;;;;;;14.85;100.00;98953.94;15281276;19;20077;-58
2023/10/09 16:49:11;;;;;;;6.15;4.18;;;;;;;14.87;100.00;98950.03;15283549;19;20070;-59
2023/10/09 16:54:36;;;;;;;8.38;4.40;;;;;;;14.85;100.00;98949.34;15287850;19;20014;-58
2023/10/09 17:00:01;;;;;;;8.43;4.30;;;;;;;14.89;100.00;98955.25;15288071;19;20070;-58
2023/10/09 17:05:32;;;;;;;8.65;4.53;;;;;;;14.88;100.00;98959.00;15278363;19;20494;-58
2023/10/09 17:10:58;;;;;;;7.25;4.35;;;;;;;14.88;100.00;98957.13;15277216;19;20029;-57
2023/10/09 17:16:24;;;;;;;8.23;4.28;;;;;;;14.89;100.00;98972.41;15289415;19;20014;-54
2023/10/09 17:21:52;;;;;;;6.72;3.92;;;;;;;14.93;100.00;98972.88;15285103;19;20018;-58
2023/10/09 17:27:19;;;;;;;6.63;4.30;;;;;;;14.94;100.00;98969.16;15280389;19;20025;-57
2023/10/09 17:32:47;;;;;;;7.35;4.00;;;;;;;14.99;100.00;98965.91;15283996;19;20021;-57
2023/10/09 17:38:18;;;;;;;6.53;4.10;;;;;;;15.03;100.00;98975.41;15276595;19;20032;-56
2023/10/09 17:43:42;;;;;;;6.35;3.85;;;;;;;15.06;100.00;98980.44;15276186;19;20015;-57
2023/10/09 17:49:06;;;;;;;5.57;3.63;;;;;;;15.04;100.00;98985.22;15279297;19;20516;-57
2023/10/09 17:54:34;;;;;;;5.47;3.90;;;;;;;14.98;100.00;98980.50;15283040;19;20535;-56
2023/10/09 18:00:03;;;;;;;6.15;4.68;;;;;;;14.90;100.00;98974.09;15283685;19;20378;-58
2023/10/09 18:05:29;;;;;;;6.10;4.18;;;;;;;14.87;100.00;98984.44;14770516;19;10000618;-57
2023/10/09 18:10:57;;;;;;;7.15;4.18;;;;;;;14.89;100.00;98983.25;15277501;19;20011;-54
2023/10/09 18:16:22;;;;;;;7.82;4.22;;;;;;;14.93;100.00;98989.16;15273097;19;20014;-57
2023/10/09 18:21:47;;;;;;;6.05;3.88;;;;;;;14.93;100.00;98986.44;15280202;19;20082;-54
2023/10/09 18:27:14;;;;;;;7.47;4.28;;;;;;;14.96;100.00;98988.81;15280169;19;20130;-57
2023/10/09 18:32:39;;;;;;;6.32;4.10;;;;;;;15.00;100.00;98990.13;15280983;19;20485;-55
2023/10/09 18:38:05;;;;;;;7.82;4.50;;;;;;;15.03;100.00;98989.81;15281865;19;20488;-56
2023/10/09 18:43:32;;;;;;;6.57;4.35;;;;;;;15.02;100.00;98985.38;15272599;19;20770;-54
2023/10/09 18:49:01;;;;;;;6.97;4.35;;;;;;;15.00;100.00;98979.28;15275804;19;20463;-56
2023/10/09 18:54:25;;;;;;;5.70;4.45;;;;;;;14.94;100.00;98975.41;15276642;19;20010;-53
2023/10/09 18:59:53;;;;;;;7.55;5.07;;;;;;;14.83;100.00;98966.81;15280053;19;20110;-56
2023/10/09 19:05:19;;;;;;;7.03;4.88;;;;;;;14.75;100.00;98968.56;15279669;19;20019;-56
2023/10/09 19:10:44;;;;;;;8.30;4.72;;;;;;;14.73;100.00;98977.88;15278821;19;20022;-57
2023/10/09 19:16:12;;;;;;;7.82;4.90;;;;;;;14.73;100.00;98978.72;15272630;19;20494;-55
2023/10/09 19:21:37;;;;;;;6.88;4.85;;;;;;;14.85;100.00;98987.31;15279874;19;20045;-55
2023/10/09 19:27:02;;;;;;;7.65;4.45;;;;;;;14.88;100.00;98984.28;15274794;19;20024;-54
2023/10/09 19:32:30;;;;;;;5.57;4.53;;;;;;;14.93;100.00;98997.31;15277090;19;20018;-55
2023/10/09 19:37:57;;;;;;;7.72;4.72;;;;;;;14.98;100.00;99000.34;15278518;19;20514;-52
2023/10/09 19:43:24;;;;;;;7.15;4.80;;;;;;;14.96;100.00;98999.69;15273024;19;20025;-55
2023/10/09 19:48:55;;;;;;;8.07;4.78;;;;;;;14.92;100.00;98984.75;15268246;19;20017;-55
2023/10/09 19:54:21;;;;;;;9.10;4.70;;;;;;;14.85;100.00;99000.06;15275537;19;20598;-55
2023/10/09 19:59:45;;;;;;;6.65;4.57;;;;;;;14.83;100.00;99005.63;15279269;19;20010;-51
2023/10/09 20:05:15;;;;;;;9.25;4.57;;;;;;;14.84;100.00;99022.78;15291858;19;20019;-58
2023/10/09 20:10:43;;;;;;;8.82;5.55;;;;;;;14.87;100.00;99019.72;15292081;19;20021;-52
2023/10/09 20:16:09;;;;;;;8.88;5.10;;;;;;;14.90;100.00;99016.63;15292783;19;20011;-52
2023/10/09 20:21:44;;;;;;;8.02;4.88;;;;;;;14.90;100.00;99017.50;15279737;19;20507;-51
2023/10/09 20:27:09;;;;;;;6.93;5.03;;;;;;;14.87;100.00;99017.00;15288506;19;20006;-56
2023/10/09 20:32:34;;;;;;;9.07;5.20;;;;;;;14.85;100.00;99024.47;15287152;19;20014;-55
2023/10/09 20:38:02;;;;;;;7.40;5.30;;;;;;;14.85;100.00;99032.59;15287235;19;20478;-55
2023/10/09 20:43:27;;;;;;;8.77;5.60;;;;;;;14.87;100.00;99044.97;15286190;19;20374;-55
2023/10/09 20:48:52;;;;;;;10.18;5.60;;;;;;;14.88;100.00;99053.94;15290130;19;20406;-51
2023/10/09 20:54:20;;;;;;;8.57;5.00;;;;;;;14.89;100.00;99055.63;15275501;19;20015;-53
2023/10/09 20:59:46;;;;;;;8.23;5.53;;;;;;;14.91;100.00;99056.31;15290697;19;20082;-51
2023/10/09 21:05:12;;;;;;;8.57;5.78;;;;;;;14.91;100.00;99062.59;15286284;19;21076;-53
2023/10/09 21:10:40;;;;;;;7.90;5.65;;;;;;;14.94;100.00;99055.97;15289298;19;20101;-54
2023/10/09 21:16:05;;;;;;;9.52;6.43;;;;;;;14.94;100.00;99064.94;15288079;19;20023;-56
2023/10/09 21:21:31;;;;;;;10.00;6.35;;;;;;;14.93;100.00;99055.09;15284705;19;20019;-53
2023/10/09 21:27:00;;;;;;;9.43;6.07;;;;;;;14.96;100.00;99064.78;15273823;19;20024;-51
2023/10/09 21:32:27;;;;;;;10.20;6.40;;;;;;;14.95;100.00;99058.50;15282287;19;20025;-53
2023/10/09 21:37:55;;;;;;;8.73;6.00;;;;;;;14.97;100.00;99071.91;15287696;19;20471;-57
2023/10/09 21:43:23;;;;;;;8.35;5.63;;;;;;;15.02;100.00;99079.53;15291537;19;20014;-56
2023/10/09 21:48:49;;;;;;;10.63;6.00;;;;;;;15.02;100.00;99068.69;15286581;19;20027;-55
2023/10/09 21:54:15;;;;;;;8.70;5.75;;;;;;;15.02;100.00;99072.22;15283433;19;20018;-57
2023/10/09 21:59:44;;;;;;;8.60;5.57;;;;;;;15.02;100.00;99082.25;15283786;19;20038;-56
2023/10/09 22:05:19;;;;;;;8.10;5.55;;;;;;;15.03;100.00;99071.19;15283255;19;20014;-57
2023/10/09 22:10:47;;;;;;;12.02;6.72;;;;;;;15.04;100.00;99067.47;15286210;19;20018;-55
2023/10/09 22:16:15;;;;;;;8.93;5.35;;;;;;;15.07;100.00;99077.13;15283138;19;20025;-55
2023/10/09 22:21:47;;;;;;;10.20;5.97;;;;;;;15.07;100.00;99075.28;15282804;19;20010;-54
2023/10/09 22:27:17;;;;;;;10.65;6.60;;;;;;;15.03;100.00;99082.06;15275734;19;20015;-51
2023/10/09 22:32:48;;;;;;;9.88;5.95;;;;;;;14.98;100.00;99084.47;15276158;19;20018;-53
2023/10/09 22:38:15;;;;;;;9.15;6.10;;;;;;;14.93;100.00;99081.41;15282333;19;20969;-54
2023/10/09 22:43:40;;;;;;;8.77;5.72;;;;;;;14.92;100.00;99082.44;15280868;19;20007;-51
2023/10/09 22:49:13;;;;;;;8.23;5.18;;;;;;;14.99;100.00;99075.31;15275291;19;20019;-55
2023/10/09 22:54:42;;;;;;;8.82;6.28;;;;;;;15.00;100.00;99070.72;15282360;19;20018;-57
2023/10/09 23:00:27;;;;;;;10.25;5.82;;;;;;;14.97;100.00;99069.19;15276876;19;20018;-53
2023/10/09 23:05:56;;;;;;;9.45;6.07;;;;;;;14.97;100.00;99054.78;15272872;19;20097;-55
2023/10/09 23:11:25;;;;;;;10.63;6.28;;;;;;;14.98;100.00;99057.34;15279788;19;20014;-56
2023/10/09 23:16:56;;;;;;;10.18;6.07;;;;;;;15.01;100.00;99062.38;15281529;19;20014;-54
2023/10/09 23:33:41;;;;;;;10.27;6.28;;;;;;;15.04;100.00;99083.75;15271480;19;20018;-56
2023/10/09 23:39:13;;;;;;;7.53;5.50;;;;;;;15.02;100.00;99068.69;15285907;19;20042;-54
2023/10/09 23:44:38;;;;;;;9.85;6.38;;;;;;;15.01;100.00;99083.25;15295836;19;20023;-57
2023/10/09 23:50:04;;;;;;;11.43;6.20;;;;;;;15.00;100.00;99074.25;15295023;19;20681;-54
2023/10/09 23:55:31;;;;;;;10.38;6.22;;;;;;;14.99;100.00;99067.16;15293657;19;20723;-54
